sensor_id;sensor_type;location;lat;lon;timestamp;pressure;altitude;pressure_sealevel;temperature;humidity
13027;BME280;6580;42.680;23.324;2023-04-24T00:00:20;95015.94;;;13.46;75.06
13027;BME280;6580;42.680;23.324;2023-04-24T00:03:07;95003.91;;;13.27;79.53
13027;BME280;6580;42.680;23.324;2023-04-24T00:05:53;95005.28;;;13.38;81.50
13027;BME280;6580;42.680;23.324;2023-04-24T00:08:39;94995.56;;;13.22;77.70
13027;BME280;6580;42.680;23.324;2023-04-24T00:11:25;94990.16;;;13.08;82.13
13027;BME280;6580;42.680;23.324;2023-04-24T00:14:10;94982.84;;;13.02;77.11
13027;BME280;6580;42.680;23.324;2023-04-24T00:16:57;94984.91;;;13.00;75.95
13027;BME280;6580;42.680;23.324;2023-04-24T00:19:42;94976.69;;;13.02;72.98
13027;BME280;6580;42.680;23.324;2023-04-24T00:22:28;94980.94;;;13.11;72.50
13027;BME280;6580;42.680;23.324;2023-04-24T00:25:14;94978.78;;;13.14;72.56
13027;BME280;6580;42.680;23.324;2023-04-24T00:28:01;94986.47;;;12.87;74.38
13027;BME280;6580;42.680;23.324;2023-04-24T00:30:47;94980.63;;;12.83;73.17
13027;BME280;6580;42.680;23.324;2023-04-24T00:33:35;94980.38;;;13.01;70.32
13027;BME280;6580;42.680;23.324;2023-04-24T00:36:20;94988.38;;;13.01;68.83
13027;BME280;6580;42.680;23.324;2023-04-24T00:39:10;94993.78;;;12.62;74.17
13027;BME280;6580;42.680;23.324;2023-04-24T00:41:56;94990.47;;;12.91;73.39
13027;BME280;6580;42.680;23.324;2023-04-24T00:44:43;94981.16;;;12.79;75.30
13027;BME280;6580;42.680;23.324;2023-04-24T00:47:28;94976.53;;;12.73;74.24
13027;BME280;6580;42.680;23.324;2023-04-24T00:50:16;94982.06;;;12.94;75.42
13027;BME280;6580;42.680;23.324;2023-04-24T00:53:01;94973.47;;;12.76;73.29
13027;BME280;6580;42.680;23.324;2023-04-24T00:55:47;94987.16;;;12.81;70.71
13027;BME280;6580;42.680;23.324;2023-04-24T00:58:32;94988.63;;;12.83;71.81
13027;BME280;6580;42.680;23.324;2023-04-24T01:01:19;94980.38;;;13.01;70.27
13027;BME280;6580;42.680;23.324;2023-04-24T01:04:06;94981.69;;;13.05;73.45
13027;BME280;6580;42.680;23.324;2023-04-24T01:06:56;94977.50;;;13.02;70.78
13027;BME280;6580;42.680;23.324;2023-04-24T01:09:45;94985.00;;;13.07;76.14
13027;BME280;6580;42.680;23.324;2023-04-24T01:12:33;94969.38;;;12.96;78.49
13027;BME280;6580;42.680;23.324;2023-04-24T01:15:19;94965.03;;;12.95;77.30
13027;BME280;6580;42.680;23.324;2023-04-24T01:18:05;94965.84;;;12.73;85.04
13027;BME280;6580;42.680;23.324;2023-04-24T01:20:54;94953.63;;;12.78;90.25
13027;BME280;6580;42.680;23.324;2023-04-24T01:23:46;94950.31;;;12.68;87.67
13027;BME280;6580;42.680;23.324;2023-04-24T01:26:31;94949.78;;;12.50;86.60
13027;BME280;6580;42.680;23.324;2023-04-24T01:29:21;94953.72;;;12.32;92.43
13027;BME280;6580;42.680;23.324;2023-04-24T01:32:07;94948.38;;;12.32;89.76
13027;BME280;6580;42.680;23.324;2023-04-24T01:34:54;94953.72;;;12.32;90.03
13027;BME280;6580;42.680;23.324;2023-04-24T01:37:43;94955.44;;;12.25;86.36
13027;BME280;6580;42.680;23.324;2023-04-24T01:40:32;94948.81;;;12.13;85.43
13027;BME280;6580;42.680;23.324;2023-04-24T01:43:18;94953.88;;;12.00;86.79
13027;BME280;6580;42.680;23.324;2023-04-24T01:46:04;94957.78;;;12.20;89.42
13027;BME280;6580;42.680;23.324;2023-04-24T01:48:51;94952.22;;;11.99;89.85
13027;BME280;6580;42.680;23.324;2023-04-24T01:51:37;94943.00;;;12.10;88.35
13027;BME280;6580;42.680;23.324;2023-04-24T01:54:23;94953.38;;;12.05;86.89
13027;BME280;6580;42.680;23.324;2023-04-24T01:57:10;94949.16;;;12.10;85.51
13027;BME280;6580;42.680;23.324;2023-04-24T01:59:56;94946.91;;;11.91;84.86
13027;BME280;6580;42.680;23.324;2023-04-24T02:02:42;94945.75;;;11.86;86.31
13027;BME280;6580;42.680;23.324;2023-04-24T02:05:28;94948.09;;;11.81;87.18
13027;BME280;6580;42.680;23.324;2023-04-24T02:08:13;94952.78;;;11.79;87.75
13027;BME280;6580;42.680;23.324;2023-04-24T02:10:59;94951.97;;;11.78;88.46
13027;BME280;6580;42.680;23.324;2023-04-24T02:13:47;94945.50;;;11.49;92.12
13027;BME280;6580;42.680;23.324;2023-04-24T02:16:32;94944.03;;;11.38;90.32
13027;BME280;6580;42.680;23.324;2023-04-24T02:19:20;94943.00;;;11.47;91.63
13027;BME280;6580;42.680;23.324;2023-04-24T02:22:06;94944.63;;;11.80;89.53
13027;BME280;6580;42.680;23.324;2023-04-24T02:24:53;94948.81;;;11.67;90.53
13027;BME280;6580;42.680;23.324;2023-04-24T02:27:39;94935.34;;;11.60;89.76
13027;BME280;6580;42.680;23.324;2023-04-24T02:30:26;94943.44;;;11.75;89.89
13027;BME280;6580;42.680;23.324;2023-04-24T02:33:11;94950.34;;;11.61;91.18
13027;BME280;6580;42.680;23.324;2023-04-24T02:35:57;94942.03;;;11.56;88.73
13027;BME280;6580;42.680;23.324;2023-04-24T02:38:44;94931.69;;;11.53;90.04
13027;BME280;6580;42.680;23.324;2023-04-24T02:41:34;94927.00;;;11.63;90.30
13027;BME280;6580;42.680;23.324;2023-04-24T02:44:19;94918.84;;;11.49;88.09
13027;BME280;6580;42.680;23.324;2023-04-24T02:47:06;94917.69;;;11.43;89.76
13027;BME280;6580;42.680;23.324;2023-04-24T02:49:54;94917.34;;;11.54;89.42
13027;BME280;6580;42.680;23.324;2023-04-24T02:52:39;94925.34;;;11.62;91.61
13027;BME280;6580;42.680;23.324;2023-04-24T02:55:24;94915.31;;;11.48;92.06
13027;BME280;6580;42.680;23.324;2023-04-24T02:58:10;94890.41;;;11.17;91.97
13027;BME280;6580;42.680;23.324;2023-04-24T03:00:56;94921.38;;;11.34;94.80
13027;BME280;6580;42.680;23.324;2023-04-24T03:03:44;94924.22;;;11.25;92.84
13027;BME280;6580;42.680;23.324;2023-04-24T03:06:30;94928.66;;;11.48;91.97
13027;BME280;6580;42.680;23.324;2023-04-24T03:09:16;94931.19;;;11.50;93.06
13027;BME280;6580;42.680;23.324;2023-04-24T03:12:02;94926.41;;;11.13;95.04
13027;BME280;6580;42.680;23.324;2023-04-24T03:14:47;94933.72;;;11.19;96.08
13027;BME280;6580;42.680;23.324;2023-04-24T03:17:33;94916.72;;;11.12;96.06
13027;BME280;6580;42.680;23.324;2023-04-24T03:20:21;94934.72;;;11.10;96.85
13027;BME280;6580;42.680;23.324;2023-04-24T03:23:06;94937.41;;;10.95;98.55
13027;BME280;6580;42.680;23.324;2023-04-24T03:25:51;94906.94;;;10.73;99.51
13027;BME280;6580;42.680;23.324;2023-04-24T03:28:38;94936.06;;;10.99;97.76
13027;BME280;6580;42.680;23.324;2023-04-24T03:31:24;94933.75;;;11.04;98.50
13027;BME280;6580;42.680;23.324;2023-04-24T03:34:10;94931.59;;;10.99;97.59
13027;BME280;6580;42.680;23.324;2023-04-24T03:36:57;94943.06;;;11.00;97.23
13027;BME280;6580;42.680;23.324;2023-04-24T03:39:43;94932.41;;;11.00;99.17
13027;BME280;6580;42.680;23.324;2023-04-24T03:42:30;94927.06;;;11.23;98.95
13027;BME280;6580;42.680;23.324;2023-04-24T03:45:16;94934.72;;;11.26;99.45
13027;BME280;6580;42.680;23.324;2023-04-24T03:48:02;94937.06;;;11.21;98.94
13027;BME280;6580;42.680;23.324;2023-04-24T03:50:49;94935.38;;;11.28;99.07
13027;BME280;6580;42.680;23.324;2023-04-24T03:53:40;94936.03;;;11.46;95.62
13027;BME280;6580;42.680;23.324;2023-04-24T03:56:25;94930.69;;;11.46;95.97
13027;BME280;6580;42.680;23.324;2023-04-24T03:59:10;94932.31;;;11.71;94.52
13027;BME280;6580;42.680;23.324;2023-04-24T04:01:57;94938.84;;;11.61;94.16
13027;BME280;6580;42.680;23.324;2023-04-24T04:04:44;94941.00;;;11.57;95.30
13027;BME280;6580;42.680;23.324;2023-04-24T04:07:32;94936.97;;;11.69;93.75
13027;BME280;6580;42.680;23.324;2023-04-24T04:10:20;94938.56;;;11.86;92.17
13027;BME280;6580;42.680;23.324;2023-04-24T04:13:08;94931.56;;;11.85;92.46
13027;BME280;6580;42.680;23.324;2023-04-24T04:15:53;94934.81;;;12.11;90.41
13027;BME280;6580;42.680;23.324;2023-04-24T04:18:39;94927.78;;;12.18;89.11
13027;BME280;6580;42.680;23.324;2023-04-24T04:21:26;94930.13;;;12.13;87.87
13027;BME280;6580;42.680;23.324;2023-04-24T04:24:18;94927.78;;;12.18;82.60
13027;BME280;6580;42.680;23.324;2023-04-24T04:27:10;94941.31;;;12.39;80.68
13027;BME280;6580;42.680;23.324;2023-04-24T04:30:00;94929.34;;;12.35;79.90
13027;BME280;6580;42.680;23.324;2023-04-24T04:32:48;94938.09;;;12.21;79.31
13027;BME280;6580;42.680;23.324;2023-04-24T04:35:35;94943.13;;;12.16;78.90
13027;BME280;6580;42.680;23.324;2023-04-24T04:38:22;94944.09;;;12.23;77.27
13027;BME280;6580;42.680;23.324;2023-04-24T04:41:15;94952.41;;;12.28;75.73
13027;BME280;6580;42.680;23.324;2023-04-24T04:44:08;94952.75;;;12.25;74.19
13027;BME280;6580;42.680;23.324;2023-04-24T04:46:56;94965.22;;;12.32;72.54
13027;BME280;6580;42.680;23.324;2023-04-24T04:49:49;94973.78;;;12.20;72.68
13027;BME280;6580;42.680;23.324;2023-04-24T04:52:38;94971.34;;;12.11;72.67
13027;BME280;6580;42.680;23.324;2023-04-24T04:55:24;94964.56;;;12.30;72.14
13027;BME280;6580;42.680;23.324;2023-04-24T04:58:12;94974.09;;;12.33;71.16
13027;BME280;6580;42.680;23.324;2023-04-24T05:00:59;94962.78;;;12.23;71.02
13027;BME280;6580;42.680;23.324;2023-04-24T05:03:45;94977.50;;;12.19;71.65
13027;BME280;6580;42.680;23.324;2023-04-24T05:06:31;94972.41;;;12.32;72.07
13027;BME280;6580;42.680;23.324;2023-04-24T05:09:23;94968.47;;;12.50;70.94
13027;BME280;6580;42.680;23.324;2023-04-24T05:12:11;94968.91;;;12.62;69.96
13027;BME280;6580;42.680;23.324;2023-04-24T05:14:56;94967.78;;;12.56;70.14
13027;BME280;6580;42.680;23.324;2023-04-24T05:17:43;94962.56;;;12.85;68.98
13027;BME280;6580;42.680;23.324;2023-04-24T05:20:29;94963.34;;;12.71;69.35
13027;BME280;6580;42.680;23.324;2023-04-24T05:23:14;94965.97;;;12.79;69.19
13027;BME280;6580;42.680;23.324;2023-04-24T05:26:00;94964.56;;;12.91;68.21
13027;BME280;6580;42.680;23.324;2023-04-24T05:28:48;94957.31;;;13.00;68.03
13027;BME280;6580;42.680;23.324;2023-04-24T05:31:33;94962.88;;;13.13;67.51
13027;BME280;6580;42.680;23.324;2023-04-24T05:34:20;94960.88;;;13.15;66.91
13027;BME280;6580;42.680;23.324;2023-04-24T05:37:05;94964.28;;;13.45;65.96
13027;BME280;6580;42.680;23.324;2023-04-24T05:39:53;94958.34;;;13.87;63.52
13027;BME280;6580;42.680;23.324;2023-04-24T05:42:39;94958.91;;;14.25;62.30
13027;BME280;6580;42.680;23.324;2023-04-24T05:45:25;94961.47;;;14.48;60.69
13027;BME280;6580;42.680;23.324;2023-04-24T05:48:11;94966.25;;;14.38;60.53
13027;BME280;6580;42.680;23.324;2023-04-24T05:50:58;94974.13;;;14.54;59.71
13027;BME280;6580;42.680;23.324;2023-04-24T05:53:44;94969.41;;;14.41;60.60
13027;BME280;6580;42.680;23.324;2023-04-24T05:56:29;94961.81;;;14.59;60.49
13027;BME280;6580;42.680;23.324;2023-04-24T05:59:15;94959.91;;;14.74;59.53
13027;BME280;6580;42.680;23.324;2023-04-24T06:02:06;94951.19;;;15.08;58.44
13027;BME280;6580;42.680;23.324;2023-04-24T06:04:52;94950.16;;;14.88;58.82
13027;BME280;6580;42.680;23.324;2023-04-24T06:07:39;94953.78;;;15.22;58.32
13027;BME280;6580;42.680;23.324;2023-04-24T06:10:25;94952.19;;;16.03;54.59
13027;BME280;6580;42.680;23.324;2023-04-24T06:13:11;94958.22;;;16.39;53.47
13027;BME280;6580;42.680;23.324;2023-04-24T06:15:56;94955.50;;;16.73;52.13
13027;BME280;6580;42.680;23.324;2023-04-24T06:18:42;94946.97;;;17.35;50.65
13027;BME280;6580;42.680;23.324;2023-04-24T06:21:28;94943.56;;;18.43;47.39
13027;BME280;6580;42.680;23.324;2023-04-24T06:24:15;94946.78;;;17.82;47.87
13027;BME280;6580;42.680;23.324;2023-04-24T06:27:01;94947.56;;;18.15;47.63
13027;BME280;6580;42.680;23.324;2023-04-24T06:29:46;94954.59;;;18.16;46.91
13027;BME280;6580;42.680;23.324;2023-04-24T06:32:38;94949.84;;;17.28;48.59
13027;BME280;6580;42.680;23.324;2023-04-24T06:35:24;94948.56;;;16.51;50.72
13027;BME280;6580;42.680;23.324;2023-04-24T06:38:09;94955.72;;;16.31;52.42
13027;BME280;6580;42.680;23.324;2023-04-24T06:40:58;94951.97;;;16.79;51.16
13027;BME280;6580;42.680;23.324;2023-04-24T06:43:44;94940.13;;;17.65;48.44
13027;BME280;6580;42.680;23.324;2023-04-24T06:46:30;94959.38;;;17.88;48.37
13027;BME280;6580;42.680;23.324;2023-04-24T06:49:15;94962.81;;;17.05;49.83
13027;BME280;6580;42.680;23.324;2023-04-24T06:52:02;94952.97;;;16.71;51.04
13027;BME280;6580;42.680;23.324;2023-04-24T06:54:48;94947.47;;;16.99;50.78
13027;BME280;6580;42.680;23.324;2023-04-24T06:57:35;94943.00;;;18.09;47.93
13027;BME280;6580;42.680;23.324;2023-04-24T07:00:20;94934.72;;;17.91;47.80
13027;BME280;6580;42.680;23.324;2023-04-24T07:03:08;94939.66;;;17.23;49.08
13027;BME280;6580;42.680;23.324;2023-04-24T07:05:54;94935.06;;;17.11;50.09
13027;BME280;6580;42.680;23.324;2023-04-24T07:08:41;94942.41;;;17.55;49.62
13027;BME280;6580;42.680;23.324;2023-04-24T07:11:27;94927.91;;;17.69;48.74
13027;BME280;6580;42.680;23.324;2023-04-24T07:14:15;94932.69;;;17.74;49.19
13027;BME280;6580;42.680;23.324;2023-04-24T07:17:02;94926.59;;;19.24;45.45
13027;BME280;6580;42.680;23.324;2023-04-24T07:19:48;94918.03;;;20.49;42.34
13027;BME280;6580;42.680;23.324;2023-04-24T07:22:36;94921.66;;;21.67;39.44
13027;BME280;6580;42.680;23.324;2023-04-24T07:25:22;94915.31;;;21.73;39.94
13027;BME280;6580;42.680;23.324;2023-04-24T07:28:08;94909.34;;;22.40;38.15
13027;BME280;6580;42.680;23.324;2023-04-24T07:30:55;94909.81;;;22.99;36.34
13027;BME280;6580;42.680;23.324;2023-04-24T07:33:41;94900.72;;;22.31;37.78
13027;BME280;6580;42.680;23.324;2023-04-24T07:36:27;94903.69;;;21.54;39.67
13027;BME280;6580;42.680;23.324;2023-04-24T07:39:12;94901.34;;;22.33;38.07
13027;BME280;6580;42.680;23.324;2023-04-24T07:41:58;94894.63;;;22.86;36.87
13027;BME280;6580;42.680;23.324;2023-04-24T07:44:43;94897.41;;;22.18;37.20
13027;BME280;6580;42.680;23.324;2023-04-24T07:47:32;94888.09;;;23.82;36.09
13027;BME280;6580;42.680;23.324;2023-04-24T07:50:17;94885.41;;;24.53;33.66
13027;BME280;6580;42.680;23.324;2023-04-24T07:53:03;94885.44;;;24.20;33.88
13027;BME280;6580;42.680;23.324;2023-04-24T07:55:50;94884.03;;;23.41;34.54
13027;BME280;6580;42.680;23.324;2023-04-24T07:58:36;94867.97;;;23.83;35.03
13027;BME280;6580;42.680;23.324;2023-04-24T08:01:22;94870.66;;;24.70;33.11
13027;BME280;6580;42.680;23.324;2023-04-24T08:04:09;94872.34;;;24.39;33.54
13027;BME280;6580;42.680;23.324;2023-04-24T08:06:55;94873.47;;;24.59;33.47
13027;BME280;6580;42.680;23.324;2023-04-24T08:09:40;94865.19;;;24.49;33.67
13027;BME280;6580;42.680;23.324;2023-04-24T08:12:28;94872.91;;;25.16;32.61
13027;BME280;6580;42.680;23.324;2023-04-24T08:15:13;94859.94;;;25.81;32.37
13027;BME280;6580;42.680;23.324;2023-04-24T08:17:58;94867.19;;;25.71;32.20
13027;BME280;6580;42.680;23.324;2023-04-24T08:20:46;94848.53;;;26.25;30.82
13027;BME280;6580;42.680;23.324;2023-04-24T08:23:32;94850.84;;;25.75;31.80
13027;BME280;6580;42.680;23.324;2023-04-24T08:26:17;94849.56;;;26.14;31.57
13027;BME280;6580;42.680;23.324;2023-04-24T08:29:03;94841.94;;;27.14;30.20
13027;BME280;6580;42.680;23.324;2023-04-24T08:31:50;94842.84;;;27.44;29.51
13027;BME280;6580;42.680;23.324;2023-04-24T08:34:35;94838.09;;;27.05;29.90
13027;BME280;6580;42.680;23.324;2023-04-24T08:37:25;94843.13;;;25.68;31.59
13027;BME280;6580;42.680;23.324;2023-04-24T08:40:13;94837.47;;;26.00;30.82
13027;BME280;6580;42.680;23.324;2023-04-24T08:42:59;94823.75;;;26.73;30.12
13027;BME280;6580;42.680;23.324;2023-04-24T08:45:45;94818.97;;;26.54;30.44
13027;BME280;6580;42.680;23.324;2023-04-24T08:48:31;94826.09;;;26.55;30.28
13027;BME280;6580;42.680;23.324;2023-04-24T08:51:17;94821.75;;;27.25;29.36
13027;BME280;6580;42.680;23.324;2023-04-24T08:54:07;94815.50;;;27.34;29.37
13027;BME280;6580;42.680;23.324;2023-04-24T08:56:57;94813.13;;;27.83;28.56
13027;BME280;6580;42.680;23.324;2023-04-24T08:59:45;94810.34;;;27.68;28.20
13027;BME280;6580;42.680;23.324;2023-04-24T09:02:32;94816.88;;;27.52;28.41
13027;BME280;6580;42.680;23.324;2023-04-24T09:05:21;94809.16;;;26.58;29.46
13027;BME280;6580;42.680;23.324;2023-04-24T09:08:07;94804.00;;;27.47;28.54
13027;BME280;6580;42.680;23.324;2023-04-24T09:10:56;94797.19;;;27.60;28.07
13027;BME280;6580;42.680;23.324;2023-04-24T09:13:48;94788.47;;;27.88;28.35
13027;BME280;6580;42.680;23.324;2023-04-24T09:16:34;94789.25;;;27.48;28.69
13027;BME280;6580;42.680;23.324;2023-04-24T09:19:19;94789.13;;;26.42;30.24
13027;BME280;6580;42.680;23.324;2023-04-24T09:22:08;94780.72;;;25.71;30.71
13027;BME280;6580;42.680;23.324;2023-04-24T09:25:01;94770.59;;;25.35;31.58
13027;BME280;6580;42.680;23.324;2023-04-24T09:27:53;94777.34;;;25.33;31.15
13027;BME280;6580;42.680;23.324;2023-04-24T09:30:41;94772.00;;;24.90;32.05
13027;BME280;6580;42.680;23.324;2023-04-24T09:33:30;94765.06;;;25.93;30.51
13027;BME280;6580;42.680;23.324;2023-04-24T09:36:18;94757.22;;;26.48;29.18
13027;BME280;6580;42.680;23.324;2023-04-24T09:39:07;94754.53;;;26.11;30.02
13027;BME280;6580;42.680;23.324;2023-04-24T09:41:55;94755.50;;;27.03;28.66
13027;BME280;6580;42.680;23.324;2023-04-24T09:44:44;94765.81;;;26.30;29.93
13027;BME280;6580;42.680;23.324;2023-04-24T09:47:36;94758.28;;;27.13;28.66
13027;BME280;6580;42.680;23.324;2023-04-24T09:50:23;94743.81;;;27.97;27.77
13027;BME280;6580;42.680;23.324;2023-04-24T09:53:08;94747.66;;;28.06;27.45
13027;BME280;6580;42.680;23.324;2023-04-24T09:55:54;94751.22;;;28.01;27.05
13027;BME280;6580;42.680;23.324;2023-04-24T09:58:42;94736.63;;;28.46;26.80
13027;BME280;6580;42.680;23.324;2023-04-24T10:01:33;94744.59;;;27.13;28.37
13027;BME280;6580;42.680;23.324;2023-04-24T10:04:23;94729.31;;;27.91;27.62
13027;BME280;6580;42.680;23.324;2023-04-24T10:07:10;94720.81;;;29.73;25.29
13027;BME280;6580;42.680;23.324;2023-04-24T10:09:55;94706.53;;;30.04;25.00
13027;BME280;6580;42.680;23.324;2023-04-24T10:12:41;94718.94;;;29.30;25.42
13027;BME280;6580;42.680;23.324;2023-04-24T10:15:29;94706.72;;;29.07;26.04
13027;BME280;6580;42.680;23.324;2023-04-24T10:18:18;94704.16;;;27.65;27.43
13027;BME280;6580;42.680;23.324;2023-04-24T10:21:06;94696.50;;;29.18;26.07
13027;BME280;6580;42.680;23.324;2023-04-24T10:23:51;94679.28;;;30.07;24.92
13027;BME280;6580;42.680;23.324;2023-04-24T10:26:41;94689.22;;;30.03;24.63
13027;BME280;6580;42.680;23.324;2023-04-24T10:29:31;94686.91;;;30.15;25.00
13027;BME280;6580;42.680;23.324;2023-04-24T10:32:18;94676.19;;;29.86;24.93
13027;BME280;6580;42.680;23.324;2023-04-24T10:35:07;94681.72;;;30.37;24.43
13027;BME280;6580;42.680;23.324;2023-04-24T10:37:57;94678.81;;;29.34;25.80
13027;BME280;6580;42.680;23.324;2023-04-24T10:40:45;94683.06;;;28.68;26.16
13027;BME280;6580;42.680;23.324;2023-04-24T10:43:30;94671.03;;;27.11;27.81
13027;BME280;6580;42.680;23.324;2023-04-24T10:46:20;94669.06;;;26.06;29.27
13027;BME280;6580;42.680;23.324;2023-04-24T10:49:07;94672.97;;;27.11;28.29
13027;BME280;6580;42.680;23.324;2023-04-24T10:52:01;94661.91;;;28.10;26.93
13027;BME280;6580;42.680;23.324;2023-04-24T10:54:47;94656.00;;;29.05;25.71
13027;BME280;6580;42.680;23.324;2023-04-24T10:57:33;94660.81;;;28.16;26.82
13027;BME280;6580;42.680;23.324;2023-04-24T11:00:20;94661.22;;;26.19;28.42
13027;BME280;6580;42.680;23.324;2023-04-24T11:03:08;94653.84;;;25.73;30.41
13027;BME280;6580;42.680;23.324;2023-04-24T11:05:59;94658.31;;;25.89;29.87
13027;BME280;6580;42.680;23.324;2023-04-24T11:08:48;94669.25;;;25.17;30.53
13027;BME280;6580;42.680;23.324;2023-04-24T11:11:36;94659.91;;;25.08;30.13
13027;BME280;6580;42.680;23.324;2023-04-24T11:14:26;94657.84;;;24.41;31.72
13027;BME280;6580;42.680;23.324;2023-04-24T11:17:28;94660.47;;;23.71;32.47
13027;BME280;6580;42.680;23.324;2023-04-24T11:20:17;94680.06;;;22.86;34.27
13027;BME280;6580;42.680;23.324;2023-04-24T11:23:04;94702.00;;;23.13;34.46
13027;BME280;6580;42.680;23.324;2023-04-24T11:26:12;94704.22;;;22.55;35.65
13027;BME280;6580;42.680;23.324;2023-04-24T11:29:06;94698.06;;;21.69;40.79
13027;BME280;6580;42.680;23.324;2023-04-24T11:31:53;94724.63;;;22.18;53.01
13027;BME280;6580;42.680;23.324;2023-04-24T11:34:39;94709.09;;;22.69;45.80
13027;BME280;6580;42.680;23.324;2023-04-24T11:37:27;94708.56;;;24.68;47.67
13027;BME280;6580;42.680;23.324;2023-04-24T11:40:14;94703.41;;;23.69;45.41
13027;BME280;6580;42.680;23.324;2023-04-24T11:43:03;94706.88;;;23.11;47.36
13027;BME280;6580;42.680;23.324;2023-04-24T11:45:50;94683.06;;;23.01;46.51
13027;BME280;6580;42.680;23.324;2023-04-24T11:48:36;94686.94;;;22.61;44.36
13027;BME280;6580;42.680;23.324;2023-04-24T11:51:25;94679.63;;;21.94;43.08
13027;BME280;6580;42.680;23.324;2023-04-24T11:54:11;94674.63;;;23.03;41.26
13027;BME280;6580;42.680;23.324;2023-04-24T11:56:56;94674.13;;;24.36;41.03
13027;BME280;6580;42.680;23.324;2023-04-24T11:59:46;94677.13;;;23.21;37.95
13027;BME280;6580;42.680;23.324;2023-04-24T12:02:32;94664.38;;;22.44;39.03
13027;BME280;6580;42.680;23.324;2023-04-24T12:05:20;94665.84;;;22.52;39.36
13027;BME280;6580;42.680;23.324;2023-04-24T12:08:06;94661.66;;;22.16;39.20
13027;BME280;6580;42.680;23.324;2023-04-24T12:10:54;94658.03;;;22.39;38.81
13027;BME280;6580;42.680;23.324;2023-04-24T12:13:39;94658.59;;;22.41;37.88
13027;BME280;6580;42.680;23.324;2023-04-24T12:16:27;94656.81;;;22.46;38.33
13027;BME280;6580;42.680;23.324;2023-04-24T12:19:18;94656.69;;;22.13;38.82
13027;BME280;6580;42.680;23.324;2023-04-24T12:22:06;94653.91;;;22.36;39.11
13027;BME280;6580;42.680;23.324;2023-04-24T12:25:01;94637.19;;;22.72;38.04
13027;BME280;6580;42.680;23.324;2023-04-24T12:27:54;94636.75;;;23.46;35.98
13027;BME280;6580;42.680;23.324;2023-04-24T12:30:44;94631.25;;;23.24;36.11
13027;BME280;6580;42.680;23.324;2023-04-24T12:33:38;94611.38;;;23.99;36.02
13027;BME280;6580;42.680;23.324;2023-04-24T12:36:24;94609.53;;;24.53;34.67
13027;BME280;6580;42.680;23.324;2023-04-24T12:39:14;94604.66;;;23.26;35.55
13027;BME280;6580;42.680;23.324;2023-04-24T12:42:00;94611.66;;;22.57;36.87
13027;BME280;6580;42.680;23.324;2023-04-24T12:44:47;94594.16;;;22.80;36.88
13027;BME280;6580;42.680;23.324;2023-04-24T12:47:33;94601.66;;;22.29;37.29
13027;BME280;6580;42.680;23.324;2023-04-24T12:50:24;94598.50;;;21.93;38.35
13027;BME280;6580;42.680;23.324;2023-04-24T12:53:10;94581.31;;;22.76;36.89
13027;BME280;6580;42.680;23.324;2023-04-24T12:55:56;94578.19;;;22.67;37.32
13027;BME280;6580;42.680;23.324;2023-04-24T12:58:42;94569.47;;;22.82;37.18
13027;BME280;6580;42.680;23.324;2023-04-24T13:01:29;94556.97;;;22.48;37.28
13027;BME280;6580;42.680;23.324;2023-04-24T13:04:22;94563.97;;;22.33;37.16
13027;BME280;6580;42.680;23.324;2023-04-24T13:07:12;94550.00;;;21.80;38.33
13027;BME280;6580;42.680;23.324;2023-04-24T13:09:59;94539.19;;;22.57;37.19
13027;BME280;6580;42.680;23.324;2023-04-24T13:12:47;94543.47;;;22.37;37.80
13027;BME280;6580;42.680;23.324;2023-04-24T13:15:32;94538.16;;;23.12;36.05
13027;BME280;6580;42.680;23.324;2023-04-24T13:18:18;94536.78;;;23.31;35.67
13027;BME280;6580;42.680;23.324;2023-04-24T13:21:05;94528.75;;;23.41;36.15
13027;BME280;6580;42.680;23.324;2023-04-24T13:23:54;94520.94;;;23.45;35.91
13027;BME280;6580;42.680;23.324;2023-04-24T13:26:40;94528.88;;;23.30;35.63
13027;BME280;6580;42.680;23.324;2023-04-24T13:29:27;94523.03;;;23.80;34.71
13027;BME280;6580;42.680;23.324;2023-04-24T13:32:14;94517.25;;;23.56;35.36
13027;BME280;6580;42.680;23.324;2023-04-24T13:35:00;94507.78;;;23.79;35.35
13027;BME280;6580;42.680;23.324;2023-04-24T13:37:46;94505.66;;;24.13;34.28
13027;BME280;6580;42.680;23.324;2023-04-24T13:40:34;94500.50;;;23.21;36.05
13027;BME280;6580;42.680;23.324;2023-04-24T13:43:19;94502.91;;;23.39;36.06
13027;BME280;6580;42.680;23.324;2023-04-24T13:46:05;94483.16;;;23.05;36.38
13027;BME280;6580;42.680;23.324;2023-04-24T13:48:51;94490.97;;;23.18;35.77
13027;BME280;6580;42.680;23.324;2023-04-24T13:51:38;94483.16;;;22.67;36.99
13027;BME280;6580;42.680;23.324;2023-04-24T13:54:26;94479.91;;;22.49;36.53
13027;BME280;6580;42.680;23.324;2023-04-24T13:57:13;94473.22;;;22.73;36.15
13027;BME280;6580;42.680;23.324;2023-04-24T14:00:00;94471.88;;;23.13;36.07
13027;BME280;6580;42.680;23.324;2023-04-24T14:02:48;94463.94;;;23.07;36.22
13027;BME280;6580;42.680;23.324;2023-04-24T14:05:34;94459.00;;;22.87;36.35
13027;BME280;6580;42.680;23.324;2023-04-24T14:08:19;94457.03;;;22.45;36.17
13027;BME280;6580;42.680;23.324;2023-04-24T14:11:04;94446.88;;;22.95;35.43
13027;BME280;6580;42.680;23.324;2023-04-24T14:13:52;94429.94;;;23.26;35.17
13027;BME280;6580;42.680;23.324;2023-04-24T14:16:38;94446.66;;;23.18;36.97
13027;BME280;6580;42.680;23.324;2023-04-24T14:19:26;94442.00;;;22.54;39.10
13027;BME280;6580;42.680;23.324;2023-04-24T14:22:12;94447.22;;;22.60;39.53
13027;BME280;6580;42.680;23.324;2023-04-24T14:24:59;94441.06;;;22.86;39.37
13027;BME280;6580;42.680;23.324;2023-04-24T14:27:45;94437.41;;;22.38;40.51
13027;BME280;6580;42.680;23.324;2023-04-24T14:30:32;94447.81;;;22.13;41.17
13027;BME280;6580;42.680;23.324;2023-04-24T14:33:18;94439.69;;;21.80;42.61
13027;BME280;6580;42.680;23.324;2023-04-24T14:36:03;94457.44;;;20.93;44.90
13027;BME280;6580;42.680;23.324;2023-04-24T14:38:50;94463.94;;;20.57;46.77
13027;BME280;6580;42.680;23.324;2023-04-24T14:41:36;94457.72;;;20.11;48.73
13027;BME280;6580;42.680;23.324;2023-04-24T14:44:24;94451.59;;;20.04;48.83